Marion Fathers, Massachusetts
Current Conditions -  °F | °C
As of 8:54 AM on Saturday 25 Oct 2014 (Local Time) from KPSF Reporting Station
Overcast Overcast  
Wind Chill: 41°   Ceiling: 1100
Heat Index: 46°   Visibility: 7mi
Dew Point: 42°   Wind: 12mph
Humidity: 86%   Direction: 310°NW
Pressure: 29.81"   Gusts: 18mph
Location:  42.2878°N, 73.3208°W
Report Text: KPSF 251254Z AUTO 31010G16KT 7SM OVC011 08/06 A2981 RMK AO2 SLP089 T00780056
Loading
Personal Weather Stations






























Interactive Weather Map
Tropical Storm Tracking
New forecast layout! Learn more

10-Day Weather Forecast

Advertisements
Track Severe Weather on mobile